Time;durP1;ratioP1;P1;durP2;ratioP2;P2;SDS_P1;SDS_P2;PMS_P1;PMS_P2;Temp;Humidity;BMP_temperature;BMP_pressure;BME280_temperature;BME280_humidity;BME280_pressure;Samples;Min_cycle;Max_cycle;Signal;HPM_P1;HPM_P2
2023/07/21 00:01:03;;;;;;;2.85;1.50;;;;;;;14.15;65.23;100851.59;15485054;28;20074;-54
2023/07/21 00:08:36;;;;;;;3.00;1.48;;;;;;;14.06;65.42;100839.50;15498448;28;20459;-57
2023/07/21 00:16:10;;;;;;;;;;;;;;;13.98;65.06;100835.22;15497437;28;20129;-53
2023/07/21 00:23:44;;;;;;;3.05;1.65;;;;;;;13.93;65.08;100829.69;15479494;28;20375;-55
2023/07/21 00:31:18;;;;;;;4.13;2.15;;;;;;;13.77;64.57;100829.31;15496427;28;20491;-52
2023/07/21 00:38:51;;;;;;;6.78;1.90;;;;;;;13.77;64.94;100826.59;15478767;28;20459;-54
2023/07/21 00:46:27;;;;;;;3.72;2.00;;;;;;;13.50;65.37;100826.13;15495132;28;20054;-56
2023/07/21 00:54:02;;;;;;;5.80;2.17;;;;;;;13.44;65.24;100829.75;15509547;28;20042;-54
2023/07/21 01:01:37;;;;;;;3.20;1.80;;;;;;;13.36;66.11;100829.22;15477501;28;20066;-53
2023/07/21 01:09:12;;;;;;;2.42;1.98;;;;;;;13.33;66.49;100833.19;15477364;28;20105;-53
2023/07/21 01:16:47;;;;;;;2.40;2.10;;;;;;;13.37;65.87;100818.22;15494433;28;20042;-53
2023/07/21 01:24:28;;;;;;;3.15;2.10;;;;;;;13.33;65.63;100826.97;15475784;28;20355;-54
2023/07/21 01:32:02;;;;;;;3.90;2.20;;;;;;;13.27;65.83;100826.84;15493662;28;20042;-53
2023/07/21 01:39:37;;;;;;;3.63;2.30;;;;;;;13.29;64.82;100823.94;15476241;28;20045;-53
2023/07/21 01:47:12;;;;;;;4.63;2.97;;;;;;;13.10;65.05;100823.06;15492254;28;20563;-54
2023/07/21 01:55:02;;;;;;;5.47;2.70;;;;;;;12.86;66.26;100819.38;15461034;28;20053;-54
2023/07/21 02:02:37;;;;;;;3.67;2.47;;;;;;;12.84;66.10;100815.28;15470513;28;20053;-54
2023/07/21 02:10:10;;;;;;;3.22;2.40;;;;;;;12.73;66.20;100820.38;15504004;28;20117;-54
2023/07/21 02:17:45;;;;;;;4.32;2.60;;;;;;;12.44;66.34;100780.66;15503520;28;20154;-52
2023/07/21 02:25:17;;;;;;;6.10;2.40;;;;;;;12.73;65.91;100814.97;15486815;28;20068;-54
2023/07/21 02:32:51;;;;;;;4.50;2.30;;;;;;;12.73;66.06;100806.09;15502076;28;20203;-51
2023/07/21 02:40:24;;;;;;;3.55;2.30;;;;;;;12.65;66.58;100809.88;15486282;28;20122;-53
2023/07/21 02:47:59;;;;;;;3.67;2.28;;;;;;;12.64;66.58;100793.94;15503352;28;20053;-50
2023/07/21 02:55:32;;;;;;;4.38;2.20;;;;;;;12.48;67.29;100781.88;15500880;28;20110;-54
2023/07/21 03:03:12;;;;;;;4.45;2.42;;;;;;;12.40;67.27;100793.75;15505652;28;20094;-52
2023/07/21 03:10:47;;;;;;;3.75;2.22;;;;;;;12.15;67.92;100780.28;15484057;28;20046;-54
2023/07/21 03:18:26;;;;;;;3.85;2.40;;;;;;;12.31;66.59;100781.63;15483922;28;20153;-57
2023/07/21 03:26:21;;;;;;;6.00;2.60;;;;;;;12.06;67.85;100805.81;15500023;28;20042;-53
2023/07/21 03:33:58;;;;;;;3.70;2.65;;;;;;;11.93;67.99;100809.41;15483000;28;20043;-56
2023/07/21 03:41:34;;;;;;;6.35;2.97;;;;;;;12.21;67.76;100795.53;15482319;28;20057;-52
2023/07/21 03:49:11;;;;;;;4.45;2.45;;;;;;;12.32;67.47;100799.41;15482064;28;20125;-52
2023/07/21 03:56:45;;;;;;;6.07;2.97;;;;;;;12.40;67.86;100788.38;15497106;28;20047;-52
2023/07/21 04:04:21;;;;;;;7.50;3.40;;;;;;;12.72;66.82;100790.94;15462051;28;20088;-55
2023/07/21 04:11:54;;;;;;;4.10;2.92;;;;;;;12.89;66.74;100788.50;15458954;28;20274;-53
2023/07/21 04:19:29;;;;;;;6.93;3.30;;;;;;;13.18;66.02;100776.13;15480258;28;20043;-53
2023/07/21 04:27:03;;;;;;;4.85;2.92;;;;;;;13.54;66.11;100780.66;15496829;28;20338;-52
2023/07/21 04:34:38;;;;;;;4.85;2.83;;;;;;;13.80;66.13;100768.66;15496547;28;20050;-52
2023/07/21 04:42:12;;;;;;;5.32;2.50;;;;;;;14.09;65.03;100766.97;15473776;28;20050;-53
2023/07/21 04:49:50;;;;;;;3.85;2.88;;;;;;;14.32;64.96;100762.66;15494585;28;20403;-51
2023/07/21 04:57:26;;;;;;;5.65;2.90;;;;;;;14.37;66.45;100762.78;15496067;28;20141;-53
2023/07/21 05:05:03;;;;;;;5.68;3.10;;;;;;;14.59;66.67;100755.72;15495432;28;20113;-48
2023/07/21 05:12:37;;;;;;;6.07;3.40;;;;;;;14.95;66.56;100756.50;15461570;23;20061;-44
2023/07/21 05:20:31;;;;;;;4.85;3.10;;;;;;;15.15;66.18;100764.19;15427263;28;20161;-45
2023/07/21 05:28:22;;;;;;;5.18;3.00;;;;;;;15.36;65.58;100766.25;15427349;28;20050;-43
2023/07/21 05:36:05;;;;;;;3.83;2.67;;;;;;;15.49;64.57;100751.63;15391998;28;20082;-44
2023/07/21 05:43:38;;;;;;;7.03;2.63;;;;;;;15.65;64.09;100748.16;15409376;28;20042;-50
2023/07/21 05:51:14;;;;;;;5.35;2.47;;;;;;;15.43;63.45;100750.69;15393484;28;20125;-45
2023/07/21 05:58:47;;;;;;;8.25;2.90;;;;;;;15.87;61.88;100750.97;15424494;28;20067;-48
2023/07/21 06:06:22;;;;;;;5.65;2.50;;;;;;;16.11;61.63;100758.94;15409019;28;20102;-43
2023/07/21 06:14:10;;;;;;;8.38;2.45;;;;;;;15.95;61.99;100772.25;15424212;28;20035;-49
2023/07/21 06:22:04;;;;;;;5.45;2.17;;;;;;;16.25;61.05;100760.25;15424651;28;20065;-48
2023/07/21 06:29:38;;;;;;;2.92;2.20;;;;;;;16.16;61.11;100759.03;15424363;28;20035;-49
2023/07/21 06:37:13;;;;;;;5.05;2.50;;;;;;;16.49;59.81;100756.28;15408221;28;20495;-43
2023/07/21 06:45:10;;;;;;;4.50;1.98;;;;;;;16.71;60.20;100752.78;15439134;28;20056;-47
2023/07/21 06:53:20;;;;;;;4.05;2.03;;;;;;;16.71;59.83;100750.06;15340079;28;20385;-45
2023/07/21 07:00:56;;;;;;;7.82;2.63;;;;;;;16.67;60.57;100748.94;15418536;28;20132;-48
2023/07/21 07:08:30;;;;;;;6.15;2.00;;;;;;;16.57;60.19;100744.19;15401573;28;20121;-44
2023/07/21 07:16:03;;;;;;;6.10;2.45;;;;;;;17.08;59.43;100739.47;15434391;28;20077;-47
2023/07/21 07:23:43;;;;;;;5.03;1.98;;;;;;;16.95;59.75;100743.38;15417546;28;20054;-47
2023/07/21 07:31:16;;;;;;;7.15;2.13;;;;;;;17.49;59.33;100742.63;15416599;28;20380;-44
2023/07/21 07:38:50;;;;;;;3.80;2.03;;;;;;;17.33;58.72;100731.59;15433504;28;20061;-46
2023/07/21 07:46:23;;;;;;;6.18;1.58;;;;;;;17.49;57.71;100738.03;15415872;28;20047;-46
2023/07/21 07:53:58;;;;;;;4.20;1.58;;;;;;;17.84;57.85;100729.41;15431359;28;20047;-45
2023/07/21 08:01:31;;;;;;;2.63;1.10;;;;;;;18.48;53.66;100725.78;15433369;28;20098;-47
2023/07/21 08:09:05;;;;;;;2.10;1.10;;;;;;;18.43;53.34;100725.75;15430708;28;20218;-50
2023/07/21 08:16:38;;;;;;;4.63;1.80;;;;;;;18.83;50.62;100719.72;15430279;28;20062;-48
2023/07/21 08:24:13;;;;;;;4.68;1.42;;;;;;;18.65;51.12;100714.72;15414156;28;20054;-45
2023/07/21 08:31:46;;;;;;;1.80;1.00;;;;;;;18.64;50.87;100717.72;15413522;28;20109;-46
2023/07/21 08:39:20;;;;;;;3.28;1.10;;;;;;;18.67;51.65;100709.84;15432293;28;20078;-51
2023/07/21 08:46:53;;;;;;;2.50;1.00;;;;;;;19.31;50.62;100709.56;15431981;28;20046;-44
2023/07/21 08:54:27;;;;;;;3.05;1.10;;;;;;;19.55;50.51;100711.78;15429832;28;20054;-47
2023/07/21 09:02:00;;;;;;;2.55;1.20;;;;;;;19.04;51.33;100717.91;15411940;28;20383;-49
2023/07/21 09:09:35;;;;;;;4.50;1.50;;;;;;;19.72;52.76;100714.25;15410601;28;20050;-46
2023/07/21 09:17:10;;;;;;;2.17;1.10;;;;;;;19.61;52.32;100711.53;15426355;28;20051;-43
2023/07/21 09:24:52;;;;;;;5.10;1.30;;;;;;;19.62;51.90;100705.00;15427612;28;20042;-46
2023/07/21 09:32:25;;;;;;;3.78;1.33;;;;;;;20.29;49.51;100707.69;15427926;28;20117;-43
2023/07/21 09:40:01;;;;;;;2.92;1.10;;;;;;;19.99;47.43;100709.34;15426659;28;20138;-44
2023/07/21 09:47:35;;;;;;;5.18;1.00;;;;;;;20.39;49.13;100711.22;15409612;28;20054;-44
2023/07/21 09:55:13;;;;;;;4.15;1.92;;;;;;;20.20;53.54;100712.88;15424859;28;20057;-47
2023/07/21 10:02:49;;;;;;;6.82;2.33;;;;;;;20.56;51.62;100704.63;15409408;28;20432;-45
2023/07/21 10:10:24;;;;;;;6.90;2.63;;;;;;;20.46;50.62;100696.47;15425131;28;20039;-45
2023/07/21 10:17:59;;;;;;;5.18;2.00;;;;;;;20.31;49.64;100689.16;15410859;28;20054;-44
2023/07/21 10:25:54;;;;;;;5.95;2.80;;;;;;;20.13;49.51;100674.19;15438968;28;20081;-51
2023/07/21 10:33:30;;;;;;;5.80;2.28;;;;;;;20.02;51.24;100676.13;15437260;28;20046;-45
2023/07/21 10:41:04;;;;;;;10.48;1.45;;;;;;;20.35;46.88;100663.78;15437418;28;20051;-45
2023/07/21 10:48:37;;;;;;;5.30;1.70;;;;;;;20.17;48.04;100649.94;15436358;28;20273;-46
2023/07/21 10:56:11;;;;;;;3.42;1.50;;;;;;;20.53;48.02;100643.31;15437539;28;20043;-49
2023/07/21 11:03:50;;;;;;;5.30;1.20;;;;;;;20.33;48.41;100630.53;15435739;28;20042;-49
2023/07/21 11:11:24;;;;;;;5.53;1.40;;;;;;;20.48;47.84;100628.88;15417659;28;20419;-45
2023/07/21 11:18:57;;;;;;;3.38;1.63;;;;;;;20.58;48.75;100629.66;15452190;23;20050;-53
2023/07/21 11:26:32;;;;;;;6.13;1.70;;;;;;;20.35;49.91;100622.06;15440098;28;20101;-54
2023/07/21 11:34:18;;;;;;;2.03;1.20;;;;;;;20.54;48.45;100612.22;15438850;28;20034;-52
2023/07/21 11:41:53;;;;;;;3.20;1.27;;;;;;;20.75;47.04;100609.38;15438835;28;20066;-54
2023/07/21 11:49:31;;;;;;;3.42;1.60;;;;;;;20.45;47.66;100608.41;15439503;28;20114;-54
2023/07/21 11:57:06;;;;;;;4.25;1.30;;;;;;;20.35;49.35;100620.16;15437836;28;20077;-55
2023/07/21 12:04:39;;;;;;;3.55;1.48;;;;;;;20.52;49.64;100624.50;15438693;28;20595;-52
2023/07/21 12:12:15;;;;;;;5.00;1.58;;;;;;;20.95;48.51;100619.38;15438272;28;20125;-56
2023/07/21 12:19:48;;;;;;;4.28;1.70;;;;;;;20.76;48.73;100619.19;15438366;28;20058;-55
2023/07/21 12:27:23;;;;;;;2.47;1.60;;;;;;;20.07;51.21;100618.06;15419849;28;20043;-52
2023/07/21 12:34:58;;;;;;;3.05;1.52;;;;;;;20.63;51.38;100609.72;15436843;28;20563;-54
2023/07/21 12:42:32;;;;;;;1.80;1.55;;;;;;;20.04;52.68;100607.72;15435994;28;20125;-54
2023/07/21 12:50:06;;;;;;;3.25;1.70;;;;;;;20.37;51.97;100609.78;15427253;28;20047;-54
2023/07/21 12:57:41;;;;;;;5.47;1.70;;;;;;;19.87;53.23;100591.69;15435850;28;20035;-55
2023/07/21 13:05:15;;;;;;;3.20;1.85;;;;;;;20.42;51.85;100594.50;15435805;28;20403;-57
2023/07/21 13:12:51;;;;;;;4.70;1.85;;;;;;;20.34;51.40;100594.00;15394854;28;20058;-55
2023/07/21 13:20:24;;;;;;;2.20;1.98;;;;;;;20.39;52.62;100590.44;15374898;29;20054;-55
2023/07/21 13:27:58;;;;;;;;;;;;;;;20.65;51.93;100588.41;15374889;29;20047;-53
2023/07/21 13:35:31;;;;;;;3.38;1.60;;;;;;;20.54;52.78;100589.59;15360214;29;19973;-55
2023/07/21 13:43:05;;;;;;;;;;;;;;;20.57;51.75;100583.56;15377268;29;20097;-56
2023/07/21 13:50:38;;;;;;;3.90;2.10;;;;;;;20.69;51.14;100578.59;15374553;29;19926;-56
2023/07/21 13:58:12;;;;;;;;;;;;;;;20.71;51.12;100565.50;15373797;29;20051;-54
2023/07/21 14:05:47;;;;;;;2.70;1.70;;;;;;;21.32;47.94;100540.50;15403000;28;19922;-54
2023/07/21 14:13:23;;;;;;;4.03;1.60;;;;;;;21.83;48.85;100537.25;15405207;28;20184;-55
2023/07/21 14:20:59;;;;;;;3.03;1.95;;;;;;;21.60;50.25;100538.06;15372937;29;20488;-56
2023/07/21 14:28:39;;;;;;;2.25;1.90;;;;;;;21.36;50.37;100527.91;15372463;28;20051;-55
2023/07/21 14:36:12;;;;;;;3.42;1.90;;;;;;;21.58;49.19;100515.66;15372846;28;20043;-56
2023/07/21 14:43:48;;;;;;;3.45;1.60;;;;;;;21.35;49.50;100512.59;15355974;28;20134;-56
2023/07/21 14:51:21;;;;;;;5.28;1.60;;;;;;;21.49;47.87;100503.75;15373048;29;20071;-53
2023/07/21 14:58:55;;;;;;;2.28;1.40;;;;;;;21.38;47.74;100490.19;15372040;28;20416;-55
2023/07/21 15:06:28;;;;;;;2.17;1.60;;;;;;;21.07;48.63;100505.19;15377424;28;20062;-56
2023/07/21 15:14:03;;;;;;;3.22;1.60;;;;;;;21.49;48.04;100492.81;15414221;28;20051;-53
2023/07/21 15:21:36;;;;;;;2.33;1.80;;;;;;;21.56;49.21;100490.56;15408671;28;20047;-55
2023/07/21 15:29:13;;;;;;;2.38;1.70;;;;;;;21.83;48.23;100498.19;15441354;28;20086;-53
2023/07/21 15:36:46;;;;;;;2.10;1.55;;;;;;;21.67;48.38;100503.00;15440466;28;20047;-54
2023/07/21 15:44:20;;;;;;;3.10;1.92;;;;;;;21.40;48.79;100506.28;15441398;28;20051;-53
2023/07/21 15:51:53;;;;;;;2.42;1.88;;;;;;;21.43;47.95;100500.25;15440858;28;20081;-56
2023/07/21 15:59:30;;;;;;;2.05;1.50;;;;;;;21.50;45.66;100498.00;15440223;28;20511;-56
2023/07/21 16:07:02;;;;;;;2.42;1.58;;;;;;;21.67;44.65;100492.09;15437630;28;20093;-53
2023/07/21 16:14:37;;;;;;;3.38;1.85;;;;;;;21.62;46.65;100500.34;15424061;28;20050;-52
2023/07/21 16:22:10;;;;;;;3.55;1.80;;;;;;;21.63;45.97;100497.31;15437914;28;20039;-53
2023/07/21 16:29:44;;;;;;;3.50;1.80;;;;;;;21.74;46.25;100489.81;15434347;28;20313;-53
2023/07/21 16:37:17;;;;;;;2.33;1.73;;;;;;;21.61;46.67;100494.06;15415729;28;20474;-57
2023/07/21 16:44:51;;;;;;;5.50;1.80;;;;;;;;;;15435284;28;20043;-53
2023/07/21 16:52:24;;;;;;;3.13;1.80;;;;;;;21.84;47.99;100478.78;15427946;28;20043;-53
2023/07/21 17:00:01;;;;;;;3.38;2.20;;;;;;;21.62;49.05;100483.94;15435154;28;20488;-53
2023/07/21 17:07:36;;;;;;;2.85;2.10;;;;;;;21.29;49.64;100480.16;15434679;28;20097;-53
2023/07/21 17:15:13;;;;;;;3.40;1.92;;;;;;;21.29;49.73;100502.00;15466103;23;20105;-46
2023/07/21 17:22:48;;;;;;;5.80;3.15;;;;;;;18.65;62.73;100551.59;15518386;28;20046;-52
2023/07/21 17:30:22;;;;;;;14.13;6.60;;;;;;;17.21;69.35;100564.66;15451510;28;20112;-51
2023/07/21 17:37:55;;;;;;;6.00;3.50;;;;;;;17.52;69.49;100558.38;15445009;28;20034;-51
2023/07/21 17:45:30;;;;;;;21.65;4.55;;;;;;;17.34;71.86;100572.34;15458858;28;20057;-48
2023/07/21 17:53:03;;;;;;;7.53;4.05;;;;;;;17.45;72.06;100581.41;15482175;28;20463;-50
2023/07/21 18:00:39;;;;;;;;;;;;;;;17.59;71.43;100577.16;15488191;28;20072;-51
2023/07/21 18:08:12;;;;;;;11.20;7.00;;;;;;;17.80;71.24;100592.53;15492702;28;19932;-54
2023/07/21 18:15:46;;;;;;;;;;;;;;;17.73;71.51;100600.09;15490193;28;20470;-54
2023/07/21 18:23:19;;;;;;;6.95;4.47;;;;;;;17.18;74.79;100597.72;15475679;28;19925;-51
2023/07/21 18:30:54;;;;;;;7.15;3.72;;;;;;;17.65;72.26;100588.88;15492100;28;20057;-52
2023/07/21 18:38:27;;;;;;;10.02;5.00;;;;;;;17.86;71.30;100577.09;15475533;28;20042;-50
2023/07/21 18:46:01;;;;;;;;;;;;;;;17.92;70.71;100567.91;15501819;28;20503;-51
2023/07/21 18:53:41;;;;;;;7.50;4.15;;;;;;;18.07;70.01;100550.84;15461471;28;19972;-49
2023/07/21 19:01:16;;;;;;;6.35;3.92;;;;;;;18.15;69.44;100568.56;15481600;28;20070;-47
2023/07/21 19:08:49;;;;;;;5.90;4.20;;;;;;;18.08;69.51;100560.63;15458052;28;20051;-52
2023/07/21 19:16:25;;;;;;;10.38;4.72;;;;;;;17.93;69.83;100547.00;15485467;28;20073;-49
2023/07/21 19:23:59;;;;;;;7.18;4.88;;;;;;;17.79;70.79;100569.16;15472708;28;20069;-49
2023/07/21 19:31:33;;;;;;;8.27;5.32;;;;;;;17.82;70.31;100579.53;15475388;28;20380;-50
2023/07/21 19:39:06;;;;;;;10.25;5.47;;;;;;;17.62;71.86;100592.09;15458681;28;20248;-47
2023/07/21 19:46:40;;;;;;;;;;;;;;;17.48;72.49;100589.00;15430910;28;20054;-51
2023/07/21 19:54:12;;;;;;;8.63;5.22;;;;;;;17.32;72.17;100601.63;15420888;28;19973;-51
2023/07/21 20:01:48;;;;;;;6.93;5.07;;;;;;;17.37;71.36;100603.56;15439777;28;20126;-50
2023/07/21 20:09:21;;;;;;;7.47;4.47;;;;;;;17.32;70.35;100610.59;15406482;28;20046;-50
2023/07/21 20:16:55;;;;;;;7.97;4.85;;;;;;;16.80;72.61;100621.19;15493345;28;20522;-52
2023/07/21 20:24:28;;;;;;;9.52;4.82;;;;;;;16.61;72.36;100623.41;15480132;28;20304;-51
2023/07/21 20:32:02;;;;;;;;;;;;;;;16.89;70.38;100630.50;15497461;28;20048;-50
2023/07/21 20:39:35;;;;;;;7.97;4.60;;;;;;;16.41;70.77;100628.53;15495231;28;19921;-51
2023/07/21 20:47:09;;;;;;;6.50;4.90;;;;;;;16.23;72.68;100651.34;15479324;28;20050;-47
2023/07/21 20:54:42;;;;;;;4.88;4.10;;;;;;;16.29;71.01;100644.94;15489918;28;20050;-49
2023/07/21 21:02:17;;;;;;;6.57;4.65;;;;;;;16.19;70.37;100648.31;15457014;28;20051;-52
2023/07/21 21:09:50;;;;;;;5.03;4.53;;;;;;;16.01;71.13;100660.25;15417200;28;20050;-51
2023/07/21 21:17:24;;;;;;;4.93;4.13;;;;;;;14.87;73.86;100655.00;15433809;28;20541;-50
2023/07/21 21:24:57;;;;;;;6.50;4.10;;;;;;;15.18;73.18;100659.09;15441001;28;20045;-49
2023/07/21 21:32:31;;;;;;;5.17;4.33;;;;;;;15.32;71.89;100668.56;15492337;28;20054;-53
2023/07/21 21:40:05;;;;;;;5.55;4.32;;;;;;;14.49;73.86;100669.91;15492182;28;20117;-50
2023/07/21 21:47:39;;;;;;;6.97;4.38;;;;;;;15.20;71.78;100664.25;15492444;28;20042;-50
2023/07/21 21:55:12;;;;;;;5.75;4.40;;;;;;;15.23;71.29;100656.50;15463242;28;20037;-54
2023/07/21 22:02:46;;;;;;;5.43;4.47;;;;;;;15.22;71.12;100662.16;15471106;28;20043;-48
2023/07/21 22:10:20;;;;;;;5.78;4.55;;;;;;;15.04;71.10;100649.66;15492616;28;20043;-51
2023/07/21 22:17:54;;;;;;;;;;;;;;;14.90;72.15;100664.50;15500963;28;20054;-50
2023/07/21 22:25:27;;;;;;;7.50;5.00;;;;;;;15.05;71.26;100673.72;15503605;28;19925;-53
2023/07/21 22:33:02;;;;;;;;;;;;;;;14.78;72.04;100667.25;15501563;28;20081;-47
2023/07/21 22:40:35;;;;;;;4.80;4.30;;;;;;;14.76;71.92;100664.78;15491819;28;19954;-47
2023/07/21 22:48:09;;;;;;;5.30;4.80;;;;;;;14.68;71.89;100675.97;15425685;28;20113;-52
2023/07/21 22:55:43;;;;;;;8.23;5.22;;;;;;;14.83;71.30;100667.38;15480902;28;20160;-50
2023/07/21 23:03:17;;;;;;;7.88;5.35;;;;;;;14.79;71.04;100672.44;15501807;28;20541;-51
2023/07/21 23:10:51;;;;;;;6.75;5.60;;;;;;;14.85;70.93;100675.22;15499468;28;20057;-52
2023/07/21 23:18:25;;;;;;;10.15;5.47;;;;;;;14.67;71.83;100692.41;15561482;23;20049;-47
2023/07/21 23:26:00;;;;;;;6.10;5.22;;;;;;;14.72;71.73;100687.13;15562068;28;20045;-49
2023/07/21 23:33:34;;;;;;;6.05;5.35;;;;;;;14.72;71.28;100690.63;15544323;28;20462;-50
2023/07/21 23:41:08;;;;;;;7.28;5.50;;;;;;;14.56;71.87;100690.56;15543561;28;20054;-48
2023/07/21 23:48:42;;;;;;;11.73;5.78;;;;;;;14.71;71.35;100688.19;15559044;28;20041;-51
2023/07/21 23:56:15;;;;;;;11.80;6.45;;;;;;;14.78;71.32;100692.41;15541711;28;20056;-52
